createdAt,value
2023-03-18T00:01:51.289Z,2.27
2023-03-18T00:04:53.801Z,3.73
2023-03-18T00:07:55.886Z,3.33
2023-03-18T00:10:59.290Z,2.60
2023-03-18T00:14:01.496Z,3.13
2023-03-18T00:17:03.916Z,3.47
2023-03-18T00:20:07.699Z,4.10
2023-03-18T00:23:10.125Z,3.13
2023-03-18T00:26:12.251Z,3.80
2023-03-18T00:29:14.424Z,3.83
2023-03-18T00:32:16.739Z,4.83
2023-03-18T00:35:19.909Z,3.97
2023-03-18T00:38:22.095Z,3.33
2023-03-18T00:41:28.195Z,4.03
2023-03-18T00:44:32.111Z,3.27
2023-03-18T00:47:36.012Z,5.23
2023-03-18T00:50:38.115Z,4.05
2023-03-18T00:53:49.858Z,4.33
2023-03-18T00:56:55.183Z,3.40
2023-03-18T00:59:59.466Z,2.80
2023-03-18T01:03:02.001Z,2.47
2023-03-18T01:06:04.432Z,3.10
2023-03-18T01:09:10.089Z,4.67
2023-03-18T01:12:13.903Z,2.93
2023-03-18T01:15:18.800Z,3.57
2023-03-18T01:18:21.995Z,3.43
2023-03-18T01:21:24.027Z,4.30
2023-03-18T01:24:27.470Z,3.70
2023-03-18T01:27:29.629Z,3.50
2023-03-18T01:30:34.901Z,3.50
2023-03-18T01:33:37.040Z,4.23
2023-03-18T01:36:39.067Z,4.10
2023-03-18T01:39:41.298Z,2.63
2023-03-18T01:42:52.977Z,3.33
2023-03-18T01:46:00.970Z,3.57
2023-03-18T01:49:08.212Z,3.30
2023-03-18T01:52:15.877Z,3.77
2023-03-18T01:55:24.526Z,4.80
2023-03-18T01:58:34.364Z,4.00
2023-03-18T02:01:55.020Z,3.60
2023-03-18T02:05:02.681Z,4.13
2023-03-18T02:08:04.962Z,4.00
2023-03-18T02:11:08.623Z,4.63
2023-03-18T02:14:14.962Z,4.80
2023-03-18T02:17:20.108Z,4.13
2023-03-18T02:20:56.649Z,5.00
2023-03-18T02:24:16.254Z,3.87
2023-03-18T02:27:19.872Z,3.50
2023-03-18T02:30:27.216Z,5.33
2023-03-18T02:33:36.526Z,2.73
2023-03-18T02:36:42.080Z,5.23
2023-03-18T02:39:44.209Z,3.57
2023-03-18T02:42:48.746Z,4.83
2023-03-18T02:46:07.326Z,5.38
2023-03-18T02:49:10.223Z,4.07
2023-03-18T02:52:13.546Z,3.35
2023-03-18T02:55:15.812Z,3.50
2023-03-18T02:58:17.880Z,3.23
2023-03-18T03:01:21.046Z,3.90
2023-03-18T03:04:25.799Z,4.50
2023-03-18T03:10:30.423Z,3.57
2023-03-18T03:13:32.800Z,2.37
2023-03-18T03:16:35.443Z,2.60
2023-03-18T03:19:37.546Z,2.60
2023-03-18T03:22:39.826Z,2.63
2023-03-18T03:25:42.877Z,4.87
2023-03-18T03:28:45.190Z,3.50
2023-03-18T03:31:47.528Z,2.30
2023-03-18T03:34:50.515Z,2.80
2023-03-18T03:37:52.667Z,3.27
2023-03-18T03:40:54.831Z,3.90
2023-03-18T03:43:56.910Z,4.10
2023-03-18T03:46:59.198Z,2.87
2023-03-18T03:50:01.228Z,2.43
2023-03-18T03:53:04.966Z,2.40
2023-03-18T03:56:09.342Z,3.70
2023-03-18T03:59:11.706Z,2.88
2023-03-18T04:02:13.917Z,2.97
2023-03-18T04:05:17.520Z,2.77
2023-03-18T04:08:19.960Z,2.53
2023-03-18T04:11:22.329Z,3.10
2023-03-18T04:14:24.445Z,2.07
2023-03-18T04:17:26.863Z,2.00
2023-03-18T04:20:29.134Z,4.07
2023-03-18T04:23:33.311Z,3.30
2023-03-18T04:26:35.297Z,2.47
2023-03-18T04:29:38.432Z,2.27
2023-03-18T04:32:40.573Z,2.87
2023-03-18T04:35:43.766Z,2.10
2023-03-18T04:38:46.455Z,2.00
2023-03-18T04:41:48.564Z,2.73
2023-03-18T04:44:50.758Z,1.93
2023-03-18T04:47:54.363Z,2.40
2023-03-18T04:50:56.481Z,3.80
2023-03-18T04:53:58.545Z,2.23
2023-03-18T04:57:00.910Z,2.57
2023-03-18T05:00:05.062Z,2.90
2023-03-18T05:03:07.436Z,4.68
2023-03-18T05:06:17.086Z,2.67
2023-03-18T05:09:19.564Z,3.17
2023-03-18T05:12:22.094Z,4.37
2023-03-18T05:18:55.688Z,2.73
2023-03-18T05:21:57.750Z,2.47
2023-03-18T05:24:59.815Z,3.23
2023-03-18T05:28:02.095Z,3.33
2023-03-18T05:31:04.592Z,3.23
2023-03-18T05:34:07.297Z,3.23
2023-03-18T05:37:11.134Z,3.13
2023-03-18T05:43:20.361Z,3.03
2023-03-18T05:46:23.345Z,4.53
2023-03-18T05:49:25.543Z,3.60
2023-03-18T05:52:28.427Z,3.83
2023-03-18T05:55:31.052Z,2.83
2023-03-18T05:58:34.561Z,3.47
2023-03-18T06:01:37.611Z,4.33
2023-03-18T06:04:40.284Z,3.57
2023-03-18T06:07:45.810Z,5.60
2023-03-18T06:10:48.609Z,3.83
2023-03-18T06:13:51.029Z,3.73
2023-03-18T06:16:53.484Z,5.40
2023-03-18T06:19:57.081Z,5.97
2023-03-18T06:23:00.130Z,4.72
2023-03-18T06:26:02.820Z,5.20
2023-03-18T06:29:07.307Z,3.80
2023-03-18T06:32:10.902Z,4.53
2023-03-18T06:35:13.936Z,4.33
2023-03-18T06:38:17.001Z,3.93
2023-03-18T06:41:20.166Z,4.57
2023-03-18T06:44:23.487Z,3.80
2023-03-18T06:47:25.585Z,5.33
2023-03-18T06:50:27.847Z,5.07
2023-03-18T06:53:29.873Z,5.83
2023-03-18T06:56:34.453Z,4.07
2023-03-18T06:59:36.660Z,5.95
2023-03-18T07:02:39.774Z,5.73
2023-03-18T07:05:42.432Z,6.30
2023-03-18T07:08:45.259Z,4.67
2023-03-18T07:11:47.392Z,3.83
2023-03-18T07:14:49.528Z,5.07
2023-03-18T07:17:55.386Z,4.40
2023-03-18T07:20:57.594Z,3.97
2023-03-18T07:24:01.579Z,2.80
2023-03-18T07:27:04.537Z,5.37
2023-03-18T07:30:09.709Z,5.27
2023-03-18T07:33:11.935Z,3.37
2023-03-18T07:36:14.309Z,3.87
2023-03-18T07:39:16.469Z,3.80
2023-03-18T07:42:18.626Z,3.00
2023-03-18T07:45:23.805Z,2.97
2023-03-18T07:48:25.801Z,3.30
2023-03-18T07:51:27.999Z,4.70
2023-03-18T07:54:30.051Z,4.07
2023-03-18T07:57:32.513Z,4.83
2023-03-18T08:00:35.827Z,3.77
2023-03-18T08:03:38.585Z,3.00
2023-03-18T08:06:40.718Z,3.13
2023-03-18T08:09:42.826Z,4.55
2023-03-18T08:12:52.528Z,2.50
2023-03-18T08:15:59.747Z,4.40
2023-03-18T08:19:02.616Z,2.47
2023-03-18T08:22:04.619Z,2.53
2023-03-18T08:25:06.996Z,3.20
2023-03-18T08:28:09.114Z,3.15
2023-03-18T08:31:11.222Z,1.67
2023-03-18T08:34:23.657Z,2.47
2023-03-18T08:37:27.897Z,1.90
2023-03-18T08:40:30.285Z,3.77
2023-03-18T08:43:32.580Z,4.28
2023-03-18T08:46:35.112Z,4.90
2023-03-18T08:49:37.526Z,2.92
2023-03-18T08:52:41.346Z,3.00
2023-03-18T08:55:43.768Z,2.85
2023-03-18T08:58:46.214Z,2.97
2023-03-18T09:01:49.214Z,3.20
2023-03-18T09:04:51.867Z,4.97
2023-03-18T09:07:53.993Z,3.10
2023-03-18T09:10:56.614Z,3.80
2023-03-18T09:14:02.114Z,4.35
2023-03-18T09:17:05.097Z,3.00
2023-03-18T09:20:12.017Z,3.40
2023-03-18T09:23:15.846Z,2.88
2023-03-18T09:26:17.921Z,3.60
2023-03-18T09:29:20.907Z,3.95
2023-03-18T09:32:23.330Z,3.00
2023-03-18T09:35:26.026Z,5.25
2023-03-18T09:38:28.146Z,3.95
2023-03-18T09:42:03.783Z,4.10
2023-03-18T09:45:20.606Z,4.10
2023-03-18T09:49:00.254Z,3.65
2023-03-18T09:52:20.907Z,4.22
2023-03-18T09:55:41.267Z,4.63
2023-03-18T09:59:07.788Z,5.57
2023-03-18T10:02:35.116Z,4.30
2023-03-18T10:05:50.162Z,4.38
2023-03-18T10:09:01.735Z,4.20
2023-03-18T10:12:45.514Z,3.85
2023-03-18T10:15:56.854Z,4.00
2023-03-18T10:18:59.917Z,3.83
2023-03-18T10:22:27.985Z,3.20
2023-03-18T10:25:41.817Z,2.38
2023-03-18T10:28:56.852Z,2.72
2023-03-18T10:32:42.594Z,2.97
2023-03-18T10:36:13.494Z,2.70
2023-03-18T10:39:22.426Z,3.47
2023-03-18T10:42:28.571Z,3.08
2023-03-18T10:45:34.159Z,3.78
2023-03-18T10:48:44.935Z,3.80
2023-03-18T10:51:52.497Z,2.90
2023-03-18T10:54:54.678Z,3.25
2023-03-18T10:57:56.763Z,2.90
2023-03-18T11:00:59.140Z,1.85
2023-03-18T11:04:06.908Z,3.08
2023-03-18T11:07:19.018Z,2.42
2023-03-18T11:10:27.855Z,2.53
2023-03-18T11:13:30.744Z,3.28
2023-03-18T11:16:57.769Z,2.70
2023-03-18T11:20:17.084Z,2.72
2023-03-18T11:24:08.890Z,2.13
2023-03-18T11:27:14.324Z,2.40
2023-03-18T11:30:33.715Z,3.03
2023-03-18T11:33:37.477Z,2.08
2023-03-18T11:36:39.589Z,2.13
2023-03-18T11:39:41.962Z,3.00
2023-03-18T11:42:45.703Z,4.45
2023-03-18T11:46:01.252Z,2.15
2023-03-18T11:49:04.311Z,2.67
2023-03-18T11:52:44.722Z,2.80
2023-03-18T11:56:11.088Z,2.58
2023-03-18T11:59:36.734Z,2.88
2023-03-18T12:02:56.441Z,2.72
2023-03-18T12:06:19.383Z,2.30
2023-03-18T12:09:30.613Z,2.10
2023-03-18T12:13:05.614Z,2.55
2023-03-18T12:16:57.784Z,3.40
2023-03-18T12:20:18.689Z,2.20
2023-03-18T12:23:50.042Z,2.83
2023-03-18T12:27:17.285Z,3.67
2023-03-18T12:30:42.683Z,3.22
2023-03-18T12:33:59.345Z,3.58
2023-03-18T12:37:19.778Z,2.72
2023-03-18T12:40:48.052Z,3.13
2023-03-18T12:44:24.647Z,2.53
2023-03-18T12:47:50.837Z,2.88
2023-03-18T12:51:03.653Z,4.38
2023-03-18T12:54:16.422Z,2.47
2023-03-18T12:57:47.665Z,3.20
2023-03-18T13:01:21.105Z,2.80
2023-03-18T13:04:30.069Z,2.60
2023-03-18T13:07:44.372Z,3.28
2023-03-18T13:10:54.896Z,3.00
2023-03-18T13:14:03.582Z,5.22
2023-03-18T13:17:09.020Z,2.80
2023-03-18T13:20:27.082Z,2.53
2023-03-18T13:23:50.710Z,2.17
2023-03-18T13:27:24.640Z,2.63
2023-03-18T13:30:50.945Z,2.78
2023-03-18T13:33:58.895Z,2.00
2023-03-18T13:37:33.008Z,2.08
2023-03-18T13:40:47.671Z,2.57
2023-03-18T13:47:04.137Z,3.43
2023-03-18T13:50:27.584Z,1.45
2023-03-18T13:53:39.413Z,2.63
2023-03-18T13:56:47.432Z,2.80
2023-03-18T13:59:49.837Z,1.67
2023-03-18T14:03:16.093Z,1.65
2023-03-18T14:06:46.361Z,1.50
2023-03-18T14:10:17.370Z,1.60
2023-03-18T14:13:27.735Z,1.30
2023-03-18T14:16:48.166Z,1.33
2023-03-18T14:19:55.029Z,1.58
2023-03-18T14:23:34.647Z,1.60
2023-03-18T14:26:37.945Z,2.05
2023-03-18T14:29:47.588Z,1.73
2023-03-18T14:33:27.159Z,1.20
2023-03-18T14:36:47.560Z,1.80
2023-03-18T14:39:53.079Z,1.05
2023-03-18T14:43:07.189Z,1.05
2023-03-18T14:46:19.058Z,1.23
2023-03-18T14:50:01.440Z,1.85
2023-03-18T14:53:06.597Z,1.10
2023-03-18T14:56:26.033Z,1.38
2023-03-18T14:59:28.209Z,1.10
2023-03-18T15:02:37.664Z,1.75
2023-03-18T15:05:41.572Z,1.60
2023-03-18T15:08:50.538Z,1.50
2023-03-18T15:11:54.036Z,1.17
2023-03-18T15:14:56.597Z,1.17
2023-03-18T15:18:18.692Z,2.10
2023-03-18T15:21:37.647Z,1.45
2023-03-18T15:24:40.312Z,1.58
2023-03-18T15:27:42.840Z,2.72
2023-03-18T15:30:56.118Z,1.77
2023-03-18T15:34:18.784Z,2.40
2023-03-18T15:37:36.447Z,1.60
2023-03-18T15:40:49.598Z,1.42
2023-03-18T15:43:52.555Z,2.15
2023-03-18T15:46:56.367Z,1.65
2023-03-18T15:50:09.830Z,1.38
2023-03-18T15:53:39.990Z,1.75
2023-03-18T15:56:47.747Z,1.15
2023-03-18T15:59:50.276Z,1.15
2023-03-18T16:02:53.892Z,1.10
2023-03-18T16:05:56.751Z,0.85
2023-03-18T16:08:58.789Z,1.60
2023-03-18T16:12:10.924Z,0.95
2023-03-18T16:15:22.392Z,1.38
2023-03-18T16:18:25.946Z,1.42
2023-03-18T16:21:34.902Z,1.70
2023-03-18T16:24:47.520Z,1.20
2023-03-18T16:27:52.048Z,2.08
2023-03-18T16:33:58.839Z,1.20
2023-03-18T16:37:00.983Z,2.45
2023-03-18T16:40:03.169Z,1.77
2023-03-18T16:43:10.590Z,2.08
2023-03-18T16:46:14.598Z,1.20
2023-03-18T16:49:34.551Z,1.35
2023-03-18T16:52:38.062Z,1.30
2023-03-18T16:55:40.129Z,1.43
2023-03-18T16:58:42.234Z,1.35
2023-03-18T17:01:45.842Z,1.55
2023-03-18T17:04:47.892Z,1.70
2023-03-18T17:07:52.168Z,0.85
2023-03-18T17:10:59.591Z,1.17
2023-03-18T17:14:02.591Z,1.02
2023-03-18T17:17:22.658Z,3.00
2023-03-18T17:20:27.176Z,1.58
2023-03-18T17:26:31.261Z,1.77
2023-03-18T17:29:33.324Z,2.05
2023-03-18T17:32:36.002Z,2.15
2023-03-18T17:35:38.101Z,1.17
2023-03-18T17:38:40.414Z,0.80
2023-03-18T17:41:43.064Z,2.15
2023-03-18T17:44:45.702Z,1.52
2023-03-18T17:47:47.851Z,1.70
2023-03-18T17:50:53.382Z,1.15
2023-03-18T17:53:59.534Z,1.70
2023-03-18T17:57:01.552Z,1.48
2023-03-18T18:00:03.867Z,1.67
2023-03-18T18:03:17.343Z,1.80
2023-03-18T18:06:22.189Z,0.73
2023-03-18T18:09:24.467Z,1.42
2023-03-18T18:12:28.800Z,1.23
2023-03-18T18:15:31.425Z,1.20
2023-03-18T18:18:36.171Z,0.70
2023-03-18T18:24:40.604Z,0.85
2023-03-18T18:27:42.745Z,1.05
2023-03-18T18:30:45.477Z,1.00
2023-03-18T18:33:50.007Z,1.77
2023-03-18T18:36:52.726Z,1.58
2023-03-18T18:39:54.799Z,1.15
2023-03-18T18:42:57.059Z,1.38
2023-03-18T18:46:01.588Z,1.27
2023-03-18T18:49:03.897Z,1.70
2023-03-18T18:52:12.153Z,2.70
2023-03-18T18:55:14.365Z,0.95
2023-03-18T18:58:19.769Z,1.45
2023-03-18T19:01:21.879Z,1.25
2023-03-18T19:04:24.235Z,2.47
2023-03-18T19:07:26.824Z,1.20
2023-03-18T19:10:28.848Z,2.50
2023-03-18T19:13:33.278Z,2.03
2023-03-18T19:16:36.245Z,5.75
2023-03-18T19:19:38.842Z,2.63
2023-03-18T19:22:43.135Z,1.50
2023-03-18T19:25:46.762Z,1.25
2023-03-18T19:28:58.526Z,0.93
2023-03-18T19:32:02.047Z,1.33
2023-03-18T19:35:04.492Z,2.00
2023-03-18T19:38:06.607Z,1.43
2023-03-18T19:41:08.769Z,1.92
2023-03-18T19:44:18.075Z,1.60
2023-03-18T19:47:22.881Z,1.20
2023-03-18T19:50:25.111Z,1.50
2023-03-18T19:53:28.208Z,2.40
2023-03-18T19:56:31.497Z,1.57
2023-03-18T19:59:39.243Z,1.77
2023-03-18T20:02:41.984Z,1.90
2023-03-18T20:05:44.254Z,2.50
2023-03-18T20:08:49.099Z,2.33
2023-03-18T20:11:54.012Z,1.83
2023-03-18T20:15:01.006Z,2.67
2023-03-18T20:18:03.215Z,2.17
2023-03-18T20:21:05.479Z,2.40
2023-03-18T20:24:12.027Z,2.00
2023-03-18T20:27:14.224Z,2.40
2023-03-18T20:30:38.162Z,2.77
2023-03-18T20:33:40.372Z,3.13
2023-03-18T20:36:43.654Z,2.23
2023-03-18T20:39:46.113Z,2.47
2023-03-18T20:42:48.399Z,2.90
2023-03-18T20:45:52.107Z,2.30
2023-03-18T20:48:54.429Z,3.80
2023-03-18T20:51:56.548Z,2.67
2023-03-18T20:54:58.727Z,3.00
2023-03-18T20:58:01.684Z,2.17
2023-03-18T21:01:04.543Z,2.38
2023-03-18T21:04:07.676Z,3.63
2023-03-18T21:07:13.760Z,2.40
2023-03-18T21:10:18.813Z,3.50
2023-03-18T21:13:36.320Z,3.00
2023-03-18T21:16:38.503Z,2.40
2023-03-18T21:19:40.994Z,2.33
2023-03-18T21:22:44.368Z,2.27
2023-03-18T21:25:47.237Z,2.97
2023-03-18T21:28:50.680Z,1.83
2023-03-18T21:31:52.876Z,2.20
2023-03-18T21:34:56.530Z,2.73
2023-03-18T21:37:58.606Z,2.20
2023-03-18T21:41:02.202Z,2.80
2023-03-18T21:44:04.495Z,2.73
2023-03-18T21:47:21.015Z,1.73
2023-03-18T21:50:25.402Z,2.20
2023-03-18T21:53:28.671Z,1.55
2023-03-18T21:56:30.814Z,3.20
2023-03-18T21:59:32.863Z,2.40
2023-03-18T22:02:37.745Z,1.53
2023-03-18T22:05:39.786Z,1.57
2023-03-18T22:08:44.038Z,2.10
2023-03-18T22:11:46.257Z,1.87
2023-03-18T22:14:48.414Z,2.67
2023-03-18T22:17:51.477Z,1.97
2023-03-18T22:20:53.690Z,1.63
2023-03-18T22:23:58.186Z,1.10
2023-03-18T22:27:01.239Z,2.03
2023-03-18T22:30:04.097Z,2.37
2023-03-18T22:33:06.937Z,1.87
2023-03-18T22:36:15.750Z,2.70
2023-03-18T22:39:18.826Z,1.97
2023-03-18T22:42:24.700Z,1.50
2023-03-18T22:45:34.460Z,1.93
2023-03-18T22:48:36.704Z,2.33
2023-03-18T22:51:41.255Z,1.80
2023-03-18T22:54:43.441Z,1.27
2023-03-18T22:57:45.569Z,1.33
2023-03-18T23:00:49.110Z,2.10
2023-03-18T23:03:52.177Z,1.50
2023-03-18T23:06:54.484Z,1.87
2023-03-18T23:09:58.234Z,1.47
2023-03-18T23:13:00.307Z,2.17
2023-03-18T23:16:07.998Z,2.30
2023-03-18T23:19:12.912Z,1.30
2023-03-18T23:22:23.961Z,1.07
2023-03-18T23:25:26.031Z,1.53
2023-03-18T23:28:55.494Z,1.67
2023-03-18T23:31:57.710Z,2.07
2023-03-18T23:34:59.724Z,1.23
2023-03-18T23:38:01.805Z,1.37
2023-03-18T23:41:03.908Z,1.70
2023-03-18T23:44:06.105Z,1.23
2023-03-18T23:47:09.282Z,1.00
2023-03-18T23:50:11.900Z,1.40
2023-03-18T23:53:13.944Z,1.00
2023-03-18T23:56:17.207Z,1.47
2023-03-18T23:59:19.521Z,1.00
